Puunene, HI (96784)

9:21 PM HST on July 24, 2016 (GMT -1000)
Lower Kula | | Change Station
Active Advisory: Flash Flood Watch

Elev 2336 ft 20.76 °N, 156.34 °W | Updated 1 minute ago

Overcast
Overcast
71.8 °F
Feels Like 71.8 °F
N
0.0
Wind Variable Wind from ENE
Gusts 9.0 mph

Today
High -- | Low -- °F
--% Chance of Precip.
Yesterday
High -- | Low -- °F
Precip. -- in
Pressure 29.94 in
Visibility 10.0 miles
Clouds Mostly Cloudy 400 ft
Overcast 1600 ft
Dew Point 69 °F
Humidity 90%
Rainfall 0.25 in
Snow Depth Not available.
5:56 AM 7:06 PM
Waning Gibbous, 68% visible
METAR PHNY 250656Z AUTO 12013KT 10SM BKN004 OVC016 23/23 A3000 RMK AO2 CIG 002V009 SLP137 T02330228
Pressure 29.94 in
Visibility 10.0 miles
Clouds Mostly Cloudy 400 ft
Overcast 1600 ft
Dew Point 69 °F
Humidity 90%
Rainfall 0.25 in
Snow Depth Not available.
5:56 AM 7:06 PM
Waning Gibbous, 68% visible
METAR PHNY 250656Z AUTO 12013KT 10SM BKN004 OVC016 23/23 A3000 RMK AO2 CIG 002V009 SLP137 T02330228

10-Day Weather Forecast

Almanac

Astronomy

Jul. 24, 2016 Rise Set
Actual Time
Civil Twilight
Nautical Twilight
Astronomical Twilight
Moon
Length of Visible Light
Length of Day
Tomorrow will be .
, % of the Moon is Illuminated

Today's Extremes

State Highs State Lows

Community

WunderPhotos

Upload Photos

1,927,274 photos uploaded!

WunderBlog® & News

Nearby

Air Quality

  Air Quality AQ Index Pollutant
Not available.

Snow Depth

Station Depth Elevation

Earthquake Activity

City Distance Mag. Time & Date
Minimum magnitude displayed is 2.5.

Coastal Water Temperatures

Place Temperature

Stations

Nearby Weather Stations

Station Location Temp. Windchill Dew Point Humidity Wind Precip. Elev Updated Type
                   

Watches & Warnings

Flash Flood Watch
Issued: 3:46 PM HST Jul. 24, 2016 – National Weather Service

... Flash Flood Watch remains in effect through tonight...

The Flash Flood Watch continues for

* Kahoolawe... Lanai... Maui and Molokai

* through tonight.

* Rain bands around Tropical Storm Darby will bring frequent
showers... with localized heavy rainfall and flash flooding
possible tonight.

Precautionary/preparedness actions...

A Flash Flood Watch means that conditions may develop that lead
to flash flooding. Flash flooding is very dangerous.

You should monitor later forecasts and be prepared to take action
should flash flood warnings be issued.